Terminal Aerodrome Forecast
Issued by NWS

Home | Current Version | Previous Version | Text Only | Print | Product List | Glossary Off
Versions: 1 2 3 4 5 6 7 8 9 10 11 12 13 14 15 16 17 18 19 20 21 22 23 24

116
FTUS45 KGGW 092325
TAFOLF
TAF
KOLF 092325Z 1000/1024 27011KT P6SM SKC WS020/31045KT
     FM100800 26008KT P6SM FEW180 WS020/32035KT
     FM101000 26012KT P6SM FEW150 SCT200=

USA.gov is the U.S. government's official web portal to all federal, state and local government web resources and services.